createdAt,value
2018-08-20T00:01:35.533Z,17.10
2018-08-20T00:04:07.037Z,19.77
2018-08-20T00:06:48.472Z,16.43
2018-08-20T00:09:16.957Z,15.15
2018-08-20T00:11:45.452Z,15.87
2018-08-20T00:14:13.749Z,16.00
2018-08-20T00:16:42.037Z,15.83
2018-08-20T00:19:13.252Z,15.03
2018-08-20T00:21:41.989Z,16.23
2018-08-20T00:24:10.261Z,12.90
2018-08-20T00:26:38.537Z,16.57
2018-08-20T00:29:07.089Z,15.27
2018-08-20T00:31:35.861Z,13.27
2018-08-20T00:34:05.049Z,10.65
2018-08-20T00:36:33.324Z,13.27
2018-08-20T00:39:01.653Z,11.20
2018-08-20T00:41:33.880Z,12.93
2018-08-20T00:44:02.225Z,12.57
2018-08-20T00:46:30.803Z,14.03
2018-08-20T00:48:59.077Z,12.93
2018-08-20T00:51:27.335Z,13.37
2018-08-20T00:53:59.812Z,12.20
2018-08-20T00:56:28.131Z,14.97
2018-08-20T00:58:56.413Z,15.20
2018-08-20T01:01:24.701Z,12.98
2018-08-20T01:03:52.959Z,14.77
2018-08-20T01:06:21.254Z,13.13
2018-08-20T01:08:49.488Z,11.27
2018-08-20T01:11:17.821Z,12.95
2018-08-20T01:13:46.105Z,15.50
2018-08-20T01:16:14.427Z,15.15
2018-08-20T01:18:42.736Z,12.27
2018-08-20T01:21:11.176Z,13.85
2018-08-20T01:23:39.412Z,14.33
2018-08-20T01:26:07.674Z,14.90
2018-08-20T01:28:35.987Z,15.93
2018-08-20T01:31:05.359Z,14.60
2018-08-20T01:33:33.631Z,15.87
2018-08-20T01:36:01.913Z,17.23
2018-08-20T01:38:30.204Z,19.73
2018-08-20T01:40:58.438Z,16.30
2018-08-20T01:43:26.740Z,14.63
2018-08-20T01:45:55.045Z,16.30
2018-08-20T01:48:23.295Z,15.63
2018-08-20T01:50:51.547Z,16.50
2018-08-20T01:53:19.818Z,19.05
2018-08-20T01:55:48.137Z,20.90
2018-08-20T01:58:16.432Z,18.75
2018-08-20T02:00:44.823Z,21.80
2018-08-20T02:03:13.143Z,20.77
2018-08-20T02:05:41.399Z,21.43
2018-08-20T02:08:09.672Z,23.60
2018-08-20T02:10:37.952Z,22.50
2018-08-20T02:13:06.456Z,20.30
2018-08-20T02:15:34.799Z,22.77
2018-08-20T02:18:03.100Z,21.90
2018-08-20T02:20:31.517Z,19.50
2018-08-20T02:22:59.831Z,21.60
2018-08-20T02:25:28.125Z,23.03
2018-08-20T02:27:56.443Z,18.67
2018-08-20T02:30:24.740Z,22.13
2018-08-20T02:32:52.986Z,20.77
2018-08-20T02:35:21.298Z,20.83
2018-08-20T02:37:49.636Z,20.73
2018-08-20T02:40:18.546Z,20.60
2018-08-20T02:42:47.037Z,20.90
2018-08-20T02:45:22.542Z,20.40
2018-08-20T02:47:50.868Z,19.87
2018-08-20T02:50:19.174Z,21.73
2018-08-20T02:52:47.451Z,19.23
2018-08-20T02:55:15.781Z,20.63
2018-08-20T02:57:44.127Z,22.07
2018-08-20T03:00:13.954Z,18.60
2018-08-20T03:02:42.226Z,18.40
2018-08-20T03:05:11.568Z,17.20
2018-08-20T03:07:39.879Z,17.43
2018-08-20T03:10:09.914Z,16.23
2018-08-20T03:12:38.190Z,16.37
2018-08-20T03:15:11.664Z,16.27
2018-08-20T03:17:39.972Z,18.03
2018-08-20T03:20:08.304Z,17.97
2018-08-20T03:22:36.856Z,15.90
2018-08-20T03:25:06.019Z,16.37
2018-08-20T03:27:34.851Z,15.00
2018-08-20T03:30:03.165Z,14.00
2018-08-20T03:32:31.455Z,14.95
2018-08-20T03:34:59.883Z,12.87
2018-08-20T03:37:28.253Z,11.27
2018-08-20T03:39:56.533Z,12.87
2018-08-20T03:42:24.817Z,12.20
2018-08-20T03:44:53.236Z,12.00
2018-08-20T03:47:21.683Z,11.63
2018-08-20T03:49:50.351Z,11.78
2018-08-20T03:52:18.618Z,12.03
2018-08-20T03:54:51.491Z,14.23
2018-08-20T03:57:19.767Z,12.17
2018-08-20T03:59:48.052Z,11.97
2018-08-20T04:02:16.360Z,12.30
2018-08-20T04:04:44.649Z,11.43
2018-08-20T04:07:12.945Z,12.95
2018-08-20T04:09:41.219Z,10.83
2018-08-20T04:12:09.517Z,11.53
2018-08-20T04:14:37.767Z,10.83
2018-08-20T04:17:06.134Z,10.80
2018-08-20T04:19:34.474Z,11.00
2018-08-20T04:22:02.783Z,11.50
2018-08-20T04:24:31.083Z,11.83
2018-08-20T04:26:59.402Z,11.10
2018-08-20T04:29:27.732Z,10.57
2018-08-20T04:31:56.182Z,10.53
2018-08-20T04:34:25.473Z,13.63
2018-08-20T04:36:53.787Z,11.07
2018-08-20T04:39:22.222Z,11.63
2018-08-20T04:41:50.554Z,12.80
2018-08-20T04:44:18.835Z,9.70
2018-08-20T04:46:47.169Z,11.97
2018-08-20T04:49:15.490Z,9.90
2018-08-20T04:51:43.953Z,9.40
2018-08-20T04:54:12.244Z,11.43
2018-08-20T04:56:40.532Z,9.10
2018-08-20T04:59:08.872Z,9.13
2018-08-20T05:01:37.156Z,8.80
2018-08-20T05:04:05.587Z,8.60
2018-08-20T05:06:33.801Z,8.40
2018-08-20T05:09:02.186Z,10.33
2018-08-20T05:11:30.749Z,10.03
2018-08-20T05:13:59.072Z,8.23
2018-08-20T05:16:27.384Z,11.20
2018-08-20T05:19:00.608Z,10.33
2018-08-20T05:21:29.017Z,11.55
2018-08-20T05:23:57.310Z,11.40
2018-08-20T05:26:25.667Z,12.27
2018-08-20T05:28:53.972Z,11.97
2018-08-20T05:31:22.389Z,13.63
2018-08-20T05:33:50.662Z,15.03
2018-08-20T05:36:18.978Z,14.17
2018-08-20T05:38:47.309Z,14.73
2018-08-20T05:41:15.638Z,15.48
2018-08-20T05:43:43.928Z,21.27
2018-08-20T05:46:12.253Z,19.07
2018-08-20T05:48:40.593Z,19.53
2018-08-20T05:51:08.878Z,21.70
2018-08-20T05:53:37.171Z,22.23
2018-08-20T05:56:05.512Z,20.33
2018-08-20T05:58:34.329Z,21.30
2018-08-20T06:01:02.627Z,21.20
2018-08-20T06:03:30.925Z,25.10
2018-08-20T06:05:59.185Z,24.27
2018-08-20T06:08:27.509Z,24.70
2018-08-20T06:10:55.853Z,27.13
2018-08-20T06:13:25.131Z,29.47
2018-08-20T06:15:53.505Z,24.80
2018-08-20T06:18:21.834Z,27.70
2018-08-20T06:20:51.704Z,34.43
2018-08-20T06:23:20.142Z,33.93
2018-08-20T06:25:48.463Z,35.10
2018-08-20T06:28:16.832Z,36.83
2018-08-20T06:30:45.129Z,40.67
2018-08-20T06:33:13.422Z,40.80
2018-08-20T06:35:41.791Z,40.63
2018-08-20T06:38:10.200Z,45.90
2018-08-20T06:40:38.515Z,37.60
2018-08-20T06:43:06.979Z,41.43
2018-08-20T06:45:35.305Z,36.30
2018-08-20T06:48:03.873Z,40.67
2018-08-20T06:50:32.205Z,39.57
2018-08-20T06:53:00.540Z,41.05
2018-08-20T06:55:28.903Z,45.87
2018-08-20T06:57:57.472Z,46.60
2018-08-20T07:00:26.006Z,49.57
2018-08-20T07:02:54.372Z,41.57
2018-08-20T07:05:22.934Z,50.20
2018-08-20T07:07:51.269Z,46.37
2018-08-20T07:10:19.570Z,57.85
2018-08-20T07:12:47.931Z,51.43
2018-08-20T07:15:16.363Z,56.50
2018-08-20T07:17:44.862Z,51.27
2018-08-20T07:20:14.707Z,48.00
2018-08-20T07:22:43.321Z,53.00
2018-08-20T07:25:11.969Z,49.63
2018-08-20T07:27:40.261Z,51.57
2018-08-20T07:30:09.877Z,55.20
2018-08-20T07:32:38.397Z,47.67
2018-08-20T07:35:07.237Z,53.03
2018-08-20T07:37:35.526Z,52.40
2018-08-20T07:40:06.228Z,51.75
2018-08-20T07:42:34.652Z,49.43
2018-08-20T07:45:03.084Z,49.23
2018-08-20T07:47:31.396Z,49.57
2018-08-20T07:49:59.691Z,55.23
2018-08-20T07:52:28.090Z,52.23
2018-08-20T07:54:57.188Z,47.40
2018-08-20T07:57:26.246Z,55.07
2018-08-20T07:59:54.645Z,51.60
2018-08-20T08:02:22.959Z,56.53
2018-08-20T08:04:51.276Z,52.20
2018-08-20T08:07:19.597Z,52.97
2018-08-20T08:09:48.033Z,53.83
2018-08-20T08:12:16.335Z,53.93
2018-08-20T08:14:44.673Z,49.00
2018-08-20T08:17:13.025Z,53.05
2018-08-20T08:19:41.366Z,54.93
2018-08-20T08:22:09.933Z,51.70
2018-08-20T08:24:38.232Z,56.27
2018-08-20T08:27:06.786Z,51.53
2018-08-20T08:29:35.145Z,56.90
2018-08-20T08:32:03.513Z,54.10
2018-08-20T08:34:31.901Z,54.07
2018-08-20T08:37:00.353Z,50.33
2018-08-20T08:39:28.791Z,51.87
2018-08-20T08:41:57.170Z,47.43
2018-08-20T08:44:25.528Z,54.80
2018-08-20T08:46:53.852Z,52.88
2018-08-20T08:49:22.211Z,49.00
2018-08-20T08:51:50.539Z,47.83
2018-08-20T08:54:18.861Z,52.20
2018-08-20T08:56:47.168Z,52.90
2018-08-20T08:59:15.482Z,50.60
2018-08-20T09:01:43.813Z,47.77
2018-08-20T09:04:12.256Z,50.17
2018-08-20T09:06:40.610Z,46.70
2018-08-20T09:09:09.008Z,52.57
2018-08-20T09:11:37.304Z,51.27
2018-08-20T09:14:05.667Z,52.65
2018-08-20T09:16:34.557Z,52.57
2018-08-20T09:19:02.893Z,49.77
2018-08-20T09:21:31.251Z,52.67
2018-08-20T09:23:59.637Z,51.53
2018-08-20T09:26:27.958Z,48.90
2018-08-20T09:28:56.390Z,56.53
2018-08-20T09:31:25.372Z,52.00
2018-08-20T09:33:54.789Z,52.80
2018-08-20T09:36:23.155Z,49.43
2018-08-20T09:38:52.023Z,55.93
2018-08-20T09:41:20.332Z,53.80
2018-08-20T09:43:49.053Z,51.33
2018-08-20T09:46:17.380Z,47.98
2018-08-20T09:48:46.217Z,46.30
2018-08-20T09:51:14.551Z,52.15
2018-08-20T09:53:42.889Z,54.93
2018-08-20T09:56:11.274Z,46.20
2018-08-20T09:58:39.624Z,50.23
2018-08-20T10:01:07.980Z,49.20
2018-08-20T10:03:36.282Z,47.07
2018-08-20T10:06:04.948Z,46.33
2018-08-20T10:08:33.244Z,46.63
2018-08-20T10:11:01.586Z,43.70
2018-08-20T10:13:29.888Z,41.63
2018-08-20T10:15:58.207Z,44.30
2018-08-20T10:18:26.647Z,45.20
2018-08-20T10:20:54.935Z,45.60
2018-08-20T10:23:23.253Z,45.10
2018-08-20T10:25:51.608Z,42.33
2018-08-20T10:28:19.890Z,41.83
2018-08-20T10:30:48.248Z,45.30
2018-08-20T10:33:16.556Z,41.47
2018-08-20T10:35:44.911Z,38.77
2018-08-20T10:38:13.279Z,44.03
2018-08-20T10:40:41.736Z,41.80
2018-08-20T10:43:10.148Z,40.37
2018-08-20T10:45:43.701Z,41.57
2018-08-20T10:48:12.080Z,35.87
2018-08-20T10:50:40.468Z,42.00
2018-08-20T10:53:08.768Z,38.63
2018-08-20T10:55:37.092Z,34.47
2018-08-20T10:58:05.426Z,36.53
2018-08-20T11:00:34.701Z,31.30
2018-08-20T11:03:03.212Z,30.93
2018-08-20T11:05:31.594Z,39.57
2018-08-20T11:07:59.962Z,39.37
2018-08-20T11:10:28.344Z,37.60
2018-08-20T11:12:56.749Z,29.77
2018-08-20T11:15:25.063Z,33.23
2018-08-20T11:17:53.380Z,32.23
2018-08-20T11:20:21.727Z,32.27
2018-08-20T11:22:50.019Z,30.27
2018-08-20T11:25:18.325Z,29.20
2018-08-20T11:27:50.919Z,29.83
2018-08-20T11:30:19.347Z,28.77
2018-08-20T11:32:47.671Z,28.73
2018-08-20T11:35:16.022Z,32.30
2018-08-20T11:37:44.314Z,30.40
2018-08-20T11:40:12.721Z,32.53
2018-08-20T11:42:41.028Z,29.00
2018-08-20T11:45:12.331Z,28.53
2018-08-20T11:47:40.807Z,28.67
2018-08-20T11:50:09.413Z,28.40
2018-08-20T11:52:38.389Z,25.63
2018-08-20T11:55:06.707Z,25.47
2018-08-20T11:57:35.232Z,26.73
2018-08-20T12:00:03.648Z,26.53
2018-08-20T12:02:32.882Z,29.40
2018-08-20T12:05:01.206Z,30.00
2018-08-20T12:07:29.536Z,29.93
2018-08-20T12:09:57.841Z,27.30
2018-08-20T12:12:26.262Z,23.47
2018-08-20T12:14:54.678Z,21.07
2018-08-20T12:17:23.108Z,19.95
2018-08-20T12:19:51.371Z,18.33
2018-08-20T12:22:19.686Z,17.87
2018-08-20T12:24:48.006Z,17.70
2018-08-20T12:27:16.328Z,15.07
2018-08-20T12:29:44.638Z,14.53
2018-08-20T12:32:12.976Z,13.70
2018-08-20T12:34:41.344Z,13.10
2018-08-20T12:37:09.810Z,12.50
2018-08-20T12:39:38.209Z,11.90
2018-08-20T12:42:06.611Z,13.77
2018-08-20T12:44:34.953Z,12.50
2018-08-20T12:47:03.276Z,12.63
2018-08-20T12:49:31.749Z,13.70
2018-08-20T12:52:00.141Z,14.30
2018-08-20T12:54:28.467Z,13.67
2018-08-20T12:56:56.832Z,12.97
2018-08-20T12:59:25.139Z,13.00
2018-08-20T13:01:53.481Z,13.03
2018-08-20T13:04:21.796Z,15.87
2018-08-20T13:06:56.200Z,14.50
2018-08-20T13:09:24.536Z,18.27
2018-08-20T13:11:52.839Z,14.50
2018-08-20T13:14:21.935Z,13.80
2018-08-20T13:16:50.250Z,14.90
2018-08-20T13:19:18.552Z,14.70
2018-08-20T13:21:46.915Z,14.23
2018-08-20T13:24:15.242Z,15.90
2018-08-20T13:26:43.628Z,15.57
2018-08-20T13:29:11.933Z,15.20
2018-08-20T13:31:40.363Z,16.37
2018-08-20T13:34:08.675Z,16.30
2018-08-20T13:36:37.043Z,17.07
2018-08-20T13:39:06.925Z,14.23
2018-08-20T13:41:35.291Z,14.07
2018-08-20T13:44:03.964Z,14.95
2018-08-20T13:46:33.078Z,15.83
2018-08-20T13:49:01.417Z,11.07
2018-08-20T13:51:30.342Z,9.43
2018-08-20T13:53:59.352Z,10.77
2018-08-20T13:56:27.753Z,9.30
2018-08-20T13:58:56.642Z,8.60
2018-08-20T14:01:25.097Z,6.40
2018-08-20T14:03:53.486Z,6.00
2018-08-20T14:06:21.776Z,6.20
2018-08-20T14:08:50.079Z,5.93
2018-08-20T14:11:18.406Z,7.10
2018-08-20T14:13:46.705Z,6.93
2018-08-20T14:16:15.052Z,9.20
2018-08-20T14:18:43.366Z,7.10
2018-08-20T14:21:12.746Z,8.08
2018-08-20T14:23:45.029Z,8.63
2018-08-20T14:26:13.569Z,9.60
2018-08-20T14:28:41.890Z,9.37
2018-08-20T14:31:10.268Z,7.97
2018-08-20T14:33:38.636Z,10.17
2018-08-20T14:36:07.292Z,8.43
2018-08-20T14:38:35.745Z,8.57
2018-08-20T14:41:05.152Z,9.43
2018-08-20T14:43:34.511Z,8.13
2018-08-20T14:46:08.149Z,8.13
2018-08-20T14:48:36.489Z,10.33
2018-08-20T14:51:04.931Z,8.60
2018-08-20T14:53:34.228Z,8.57
2018-08-20T14:56:02.564Z,9.67
2018-08-20T14:58:30.941Z,8.57
2018-08-20T15:00:59.795Z,9.67
2018-08-20T15:03:28.176Z,9.33
2018-08-20T15:05:56.490Z,8.50
2018-08-20T15:08:24.895Z,8.67
2018-08-20T15:10:53.205Z,7.63
2018-08-20T15:13:21.515Z,8.37
2018-08-20T15:15:49.881Z,8.70
2018-08-20T15:18:18.242Z,7.70
2018-08-20T15:20:46.547Z,7.80
2018-08-20T15:23:14.880Z,8.27
2018-08-20T15:25:43.310Z,7.50
2018-08-20T15:28:11.894Z,8.80
2018-08-20T15:30:40.206Z,6.67
2018-08-20T15:33:08.695Z,5.83
2018-08-20T15:35:37.087Z,6.40
2018-08-20T15:38:09.665Z,7.27
2018-08-20T15:40:38.001Z,5.90
2018-08-20T15:43:06.457Z,7.40
2018-08-20T15:45:34.773Z,5.70
2018-08-20T15:48:03.174Z,6.87
2018-08-20T15:50:31.504Z,6.33
2018-08-20T15:52:59.964Z,5.67
2018-08-20T15:55:28.277Z,6.00
2018-08-20T15:57:56.575Z,5.20
2018-08-20T16:00:24.991Z,4.67
2018-08-20T16:02:53.409Z,2.23
2018-08-20T16:05:21.969Z,2.87
2018-08-20T16:07:50.408Z,4.27
2018-08-20T16:10:18.752Z,2.23
2018-08-20T16:12:47.030Z,2.07
2018-08-20T16:15:15.361Z,2.35
2018-08-20T16:17:44.677Z,1.40
2018-08-20T16:20:13.075Z,1.60
2018-08-20T16:22:41.428Z,2.10
2018-08-20T16:25:09.792Z,4.50
2018-08-20T16:27:38.132Z,3.70
2018-08-20T16:30:09.442Z,4.63
2018-08-20T16:32:37.793Z,4.00
2018-08-20T16:35:37.562Z,4.10
2018-08-20T16:38:06.606Z,3.00
2018-08-20T16:40:34.974Z,3.17
2018-08-20T16:43:04.027Z,2.10
2018-08-20T16:45:32.501Z,4.40
2018-08-20T16:48:00.803Z,2.93
2018-08-20T16:50:29.188Z,3.17
2018-08-20T16:52:57.540Z,2.03
2018-08-20T16:55:25.908Z,4.20
2018-08-20T16:57:54.881Z,3.73
2018-08-20T17:00:23.255Z,3.63
2018-08-20T17:02:51.657Z,5.30
2018-08-20T17:05:19.961Z,3.40
2018-08-20T17:07:48.261Z,4.23
2018-08-20T17:10:20.777Z,5.20
2018-08-20T17:12:49.151Z,4.73
2018-08-20T17:15:19.729Z,3.77
2018-08-20T17:17:48.039Z,3.83
2018-08-20T17:20:17.336Z,3.67
2018-08-20T17:22:45.696Z,5.30
2018-08-20T17:25:14.635Z,4.63
2018-08-20T17:27:45.353Z,3.77
2018-08-20T17:30:13.704Z,3.13
2018-08-20T17:32:42.038Z,3.70
2018-08-20T17:35:10.383Z,4.33
2018-08-20T17:37:38.671Z,3.00
2018-08-20T17:40:09.832Z,3.37
2018-08-20T17:42:38.252Z,4.87
2018-08-20T17:45:08.140Z,3.23
2018-08-20T17:47:38.791Z,3.87
2018-08-20T17:50:16.092Z,3.73
2018-08-20T17:52:44.458Z,4.57
2018-08-20T17:55:12.919Z,4.80
2018-08-20T17:57:41.216Z,3.57
2018-08-20T18:00:48.005Z,3.52
2018-08-20T18:03:26.284Z,3.77
2018-08-20T18:05:56.781Z,4.00
2018-08-20T18:08:26.205Z,4.30
2018-08-20T18:10:55.628Z,3.77
2018-08-20T18:13:38.173Z,5.20
2018-08-20T18:16:07.697Z,4.17
2018-08-20T18:18:36.624Z,6.10
2018-08-20T18:21:05.005Z,6.63
2018-08-20T18:23:34.277Z,6.77
2018-08-20T18:26:02.728Z,7.43
2018-08-20T18:28:41.126Z,4.10
2018-08-20T18:31:12.070Z,4.40
2018-08-20T18:33:41.544Z,5.37
2018-08-20T18:36:17.227Z,3.57
2018-08-20T18:38:54.054Z,3.47
2018-08-20T18:41:32.379Z,4.40
2018-08-20T18:44:00.736Z,4.77
2018-08-20T18:46:29.125Z,4.20
2018-08-20T18:48:57.492Z,3.63
2018-08-20T18:51:25.788Z,3.13
2018-08-20T18:53:55.773Z,4.93
2018-08-20T18:56:24.086Z,4.50
2018-08-20T18:58:52.410Z,5.23
2018-08-20T19:01:20.683Z,3.40
2018-08-20T19:03:49.639Z,4.30
2018-08-20T19:06:18.404Z,3.63
2018-08-20T19:08:46.661Z,2.83
2018-08-20T19:11:14.996Z,3.87
2018-08-20T19:13:44.063Z,3.43
2018-08-20T19:16:35.452Z,2.60
2018-08-20T19:19:05.322Z,3.55
2018-08-20T19:21:37.321Z,2.50
2018-08-20T19:24:06.121Z,3.33
2018-08-20T19:26:34.400Z,3.50
2018-08-20T19:29:28.009Z,3.10
2018-08-20T19:31:56.349Z,3.53
2018-08-20T19:34:24.610Z,2.70
2018-08-20T19:36:52.905Z,3.33
2018-08-20T19:39:21.939Z,3.03
2018-08-20T19:41:50.207Z,3.40
2018-08-20T19:44:18.559Z,3.45
2018-08-20T19:46:46.848Z,5.23
2018-08-20T19:49:15.793Z,5.97
2018-08-20T19:51:45.328Z,4.67
2018-08-20T19:54:15.104Z,3.50
2018-08-20T19:56:44.399Z,3.63
2018-08-20T19:59:13.333Z,4.40
2018-08-20T20:01:42.423Z,5.60
2018-08-20T20:04:15.228Z,4.87
2018-08-20T20:06:44.029Z,5.40
2018-08-20T20:09:12.484Z,4.85
2018-08-20T20:11:51.377Z,4.07
2018-08-20T20:14:19.701Z,4.10
2018-08-20T20:16:52.735Z,5.60
2018-08-20T20:19:21.180Z,5.73
2018-08-20T20:21:49.578Z,4.57
2018-08-20T20:24:17.953Z,5.37
2018-08-20T20:26:46.284Z,7.03
2018-08-20T20:29:14.559Z,5.17
2018-08-20T20:31:43.480Z,5.70
2018-08-20T20:34:11.855Z,6.30
2018-08-20T20:36:40.275Z,6.80
2018-08-20T20:39:11.059Z,5.80
2018-08-20T20:41:39.575Z,6.73
2018-08-20T20:44:08.426Z,8.80
2018-08-20T20:46:36.768Z,6.77
2018-08-20T20:49:05.226Z,7.10
2018-08-20T20:51:33.528Z,6.13
2018-08-20T20:54:01.834Z,6.40
2018-08-20T20:56:30.213Z,8.53
2018-08-20T20:58:58.547Z,6.87
2018-08-20T21:01:26.865Z,6.80
2018-08-20T21:03:55.185Z,6.47
2018-08-20T21:06:23.516Z,7.57
2018-08-20T21:08:52.172Z,7.33
2018-08-20T21:11:21.676Z,8.57
2018-08-20T21:13:49.945Z,8.07
2018-08-20T21:16:21.798Z,7.50
2018-08-20T21:18:54.212Z,8.17
2018-08-20T21:21:23.200Z,8.23
2018-08-20T21:23:51.637Z,7.37
2018-08-20T21:26:20.092Z,6.60
2018-08-20T21:28:49.329Z,6.90
2018-08-20T21:31:18.722Z,8.80
2018-08-20T21:33:47.553Z,7.30
2018-08-20T21:36:16.230Z,7.10
2018-08-20T21:38:45.233Z,7.43
2018-08-20T21:41:13.666Z,9.43
2018-08-20T21:43:47.753Z,7.63
2018-08-20T21:46:16.410Z,6.67
2018-08-20T21:48:45.117Z,7.03
2018-08-20T21:51:34.122Z,6.22
2018-08-20T21:54:02.373Z,12.25
2018-08-20T21:56:41.844Z,7.50
2018-08-20T21:59:10.148Z,6.93
2018-08-20T22:01:38.450Z,7.27
2018-08-20T22:04:12.106Z,6.97
2018-08-20T22:06:40.400Z,7.57
2018-08-20T22:09:08.665Z,6.83
2018-08-20T22:11:36.961Z,8.77
2018-08-20T22:14:05.243Z,7.30
2018-08-20T22:16:33.691Z,7.27
2018-08-20T22:19:02.002Z,7.93
2018-08-20T22:21:30.262Z,8.97
2018-08-20T22:24:00.702Z,8.03
2018-08-20T22:26:29.145Z,9.20
2018-08-20T22:28:58.034Z,8.10
2018-08-20T22:31:26.389Z,8.20
2018-08-20T22:34:00.103Z,7.83
2018-08-20T22:36:29.627Z,7.67
2018-08-20T22:38:59.965Z,7.87
2018-08-20T22:41:29.272Z,8.47
2018-08-20T22:43:58.471Z,11.73
2018-08-20T22:46:27.082Z,8.23
2018-08-20T22:48:58.043Z,8.40
2018-08-20T22:51:27.499Z,8.17
2018-08-20T22:53:57.645Z,8.43
2018-08-20T22:56:27.472Z,8.43
2018-08-20T22:59:05.311Z,8.03
2018-08-20T23:01:33.717Z,8.20
2018-08-20T23:04:02.000Z,8.37
2018-08-20T23:06:30.697Z,8.40
2018-08-20T23:08:59.307Z,7.70
2018-08-20T23:11:39.458Z,7.63
2018-08-20T23:14:09.314Z,7.30
2018-08-20T23:16:37.974Z,7.47
2018-08-20T23:19:06.348Z,7.60
2018-08-20T23:21:40.249Z,6.73
2018-08-20T23:24:08.589Z,7.07
2018-08-20T23:26:36.896Z,7.43
2018-08-20T23:29:05.247Z,6.73
2018-08-20T23:31:33.593Z,6.77
2018-08-20T23:34:01.922Z,6.50
2018-08-20T23:36:30.223Z,6.90
2018-08-20T23:38:58.491Z,7.07
2018-08-20T23:41:26.788Z,6.97
2018-08-20T23:43:59.952Z,7.33
2018-08-20T23:46:33.635Z,7.47
2018-08-20T23:49:02.571Z,7.30
2018-08-20T23:51:30.999Z,8.30
2018-08-20T23:53:59.954Z,7.23
2018-08-20T23:56:28.223Z,7.07
2018-08-20T23:58:56.604Z,7.57
